createdAt,value
2016-09-30T00:00:08.092Z,957.73
2016-09-30T00:01:07.702Z,957.77
2016-09-30T00:02:08.203Z,957.74
2016-09-30T00:03:07.799Z,957.79
2016-09-30T00:04:07.273Z,957.72
2016-09-30T00:05:07.834Z,957.72
2016-09-30T00:06:07.309Z,957.72
2016-09-30T00:07:07.839Z,957.71
2016-09-30T00:08:07.359Z,957.70
2016-09-30T00:09:07.960Z,957.72
2016-09-30T00:10:07.534Z,957.71
2016-09-30T00:11:08.033Z,957.69
2016-09-30T00:12:07.552Z,957.66
2016-09-30T00:13:08.095Z,957.67
2016-09-30T00:14:07.679Z,957.69
2016-09-30T00:15:08.222Z,957.69
2016-09-30T00:16:07.804Z,957.67
2016-09-30T00:17:07.388Z,957.65
2016-09-30T00:18:07.959Z,957.65
2016-09-30T00:19:07.462Z,957.72
2016-09-30T00:20:08.036Z,957.70
2016-09-30T00:21:07.628Z,957.71
2016-09-30T00:22:08.201Z,957.73
2016-09-30T00:23:07.750Z,957.74
2016-09-30T00:24:07.351Z,957.68
2016-09-30T00:25:07.869Z,957.74
2016-09-30T00:26:07.397Z,957.70
2016-09-30T00:27:07.951Z,957.72
2016-09-30T00:28:07.527Z,957.73
2016-09-30T00:29:08.051Z,957.71
2016-09-30T00:30:07.908Z,957.69
2016-09-30T00:31:07.507Z,957.69
2016-09-30T00:32:07.963Z,957.71
2016-09-30T00:33:07.442Z,957.72
2016-09-30T00:34:07.880Z,957.69
2016-09-30T00:35:07.387Z,957.65
2016-09-30T00:36:07.990Z,957.69
2016-09-30T00:37:07.560Z,957.65
2016-09-30T00:38:08.125Z,957.64
2016-09-30T00:39:07.628Z,957.62
2016-09-30T00:40:08.200Z,957.61
2016-09-30T00:41:07.759Z,957.62
2016-09-30T00:42:07.369Z,957.63
2016-09-30T00:43:08.010Z,957.59
2016-09-30T00:44:07.560Z,957.60
2016-09-30T00:45:08.079Z,957.58
2016-09-30T00:46:07.622Z,957.59
2016-09-30T00:47:08.229Z,957.59
2016-09-30T00:48:07.794Z,957.62
2016-09-30T00:49:07.257Z,957.60
2016-09-30T00:50:07.859Z,957.59
2016-09-30T00:51:07.389Z,957.58
2016-09-30T00:52:07.895Z,957.58
2016-09-30T00:53:07.471Z,957.60
2016-09-30T00:54:07.972Z,957.57
2016-09-30T00:55:07.505Z,957.56
2016-09-30T00:56:08.054Z,957.57
2016-09-30T00:57:07.541Z,957.58
2016-09-30T00:58:08.054Z,957.55
2016-09-30T00:59:07.531Z,957.54
2016-09-30T01:00:08.084Z,957.49
2016-09-30T01:01:07.688Z,957.48
2016-09-30T01:02:08.159Z,957.46
2016-09-30T01:03:08.153Z,957.44
2016-09-30T01:04:07.710Z,957.44
2016-09-30T01:05:08.299Z,957.38
2016-09-30T01:06:07.535Z,957.40
2016-09-30T01:07:08.236Z,957.42
2016-09-30T01:08:07.924Z,957.43
2016-09-30T01:09:07.731Z,957.42
2016-09-30T01:10:08.226Z,957.43
2016-09-30T01:11:08.063Z,957.39
2016-09-30T01:12:07.759Z,957.42
2016-09-30T01:13:07.221Z,957.41
2016-09-30T01:14:07.939Z,957.42
2016-09-30T01:15:07.543Z,957.44
2016-09-30T01:16:07.246Z,957.39
2016-09-30T01:17:07.540Z,957.41
2016-09-30T01:18:08.050Z,957.44
2016-09-30T01:19:07.626Z,957.45
2016-09-30T01:20:08.180Z,957.44
2016-09-30T01:21:08.093Z,957.33
2016-09-30T01:22:08.182Z,957.37
2016-09-30T01:23:07.349Z,957.37
2016-09-30T01:24:07.697Z,957.37
2016-09-30T01:25:07.508Z,957.39
2016-09-30T01:26:08.159Z,957.40
2016-09-30T01:27:07.674Z,957.38
2016-09-30T01:28:08.239Z,957.40
2016-09-30T01:29:07.736Z,957.35
2016-09-30T01:30:08.316Z,957.33
2016-09-30T01:31:07.942Z,957.29
2016-09-30T01:32:07.689Z,957.29
2016-09-30T01:33:08.265Z,957.33
2016-09-30T01:34:08.005Z,957.28
2016-09-30T01:35:07.504Z,957.31
2016-09-30T01:36:08.208Z,957.28
2016-09-30T01:37:07.777Z,957.33
2016-09-30T01:38:07.205Z,957.32
2016-09-30T01:39:07.718Z,957.33
2016-09-30T01:40:08.288Z,957.34
2016-09-30T01:41:07.870Z,957.29
2016-09-30T01:42:07.407Z,957.30
2016-09-30T01:43:08.009Z,957.30
2016-09-30T01:44:07.469Z,957.34
2016-09-30T01:45:08.010Z,957.29
2016-09-30T01:46:07.627Z,957.26
2016-09-30T01:47:08.445Z,957.27
2016-09-30T01:48:08.269Z,957.30
2016-09-30T01:49:07.756Z,957.25
2016-09-30T01:50:07.369Z,957.22
2016-09-30T01:51:07.937Z,957.20
2016-09-30T01:52:07.398Z,957.18
2016-09-30T01:53:07.968Z,957.18
2016-09-30T01:54:07.643Z,957.18
2016-09-30T01:55:08.153Z,957.17
2016-09-30T01:56:07.778Z,957.20
2016-09-30T01:57:07.277Z,957.19
2016-09-30T01:58:07.877Z,957.19
2016-09-30T01:59:07.378Z,957.17
2016-09-30T02:00:07.930Z,957.18
2016-09-30T02:01:07.744Z,957.17
2016-09-30T02:02:08.326Z,957.17
2016-09-30T02:03:07.890Z,957.16
2016-09-30T02:04:07.403Z,957.15
2016-09-30T02:05:07.869Z,957.13
2016-09-30T02:06:07.679Z,957.14
2016-09-30T02:07:08.217Z,957.12
2016-09-30T02:08:07.777Z,957.08
2016-09-30T02:09:07.268Z,957.09
2016-09-30T02:10:07.870Z,957.13
2016-09-30T02:11:07.398Z,957.10
2016-09-30T02:12:07.926Z,957.10
2016-09-30T02:13:07.468Z,957.09
2016-09-30T02:14:08.092Z,957.06
2016-09-30T02:15:07.584Z,957.06
2016-09-30T02:16:08.476Z,957.07
2016-09-30T02:17:08.140Z,957.09
2016-09-30T02:18:07.899Z,957.06
2016-09-30T02:19:07.357Z,957.08
2016-09-30T02:20:07.896Z,957.07
2016-09-30T02:21:07.490Z,957.04
2016-09-30T02:22:08.157Z,957.03
2016-09-30T02:23:07.713Z,957.06
2016-09-30T02:24:08.318Z,957.03
2016-09-30T02:25:07.872Z,957.06
2016-09-30T02:26:07.501Z,957.01
2016-09-30T02:27:08.140Z,957.02
2016-09-30T02:28:07.649Z,957.04
2016-09-30T02:29:08.177Z,956.95
2016-09-30T02:30:07.627Z,956.97
2016-09-30T02:31:08.408Z,956.97
2016-09-30T02:32:08.020Z,956.94
2016-09-30T02:33:07.544Z,956.94
2016-09-30T02:34:08.085Z,956.93
2016-09-30T02:35:07.633Z,956.93
2016-09-30T02:36:08.159Z,956.93
2016-09-30T02:37:07.726Z,957.00
2016-09-30T02:38:07.319Z,956.90
2016-09-30T02:39:07.863Z,956.90
2016-09-30T02:40:07.406Z,956.91
2016-09-30T02:41:07.923Z,956.91
2016-09-30T02:42:07.447Z,956.90
2016-09-30T02:43:07.948Z,956.90
2016-09-30T02:44:07.472Z,956.90
2016-09-30T02:45:08.327Z,956.93
2016-09-30T02:46:07.915Z,956.88
2016-09-30T02:47:07.518Z,956.90
2016-09-30T02:48:08.039Z,956.87
2016-09-30T02:49:07.810Z,956.86
2016-09-30T02:50:07.348Z,956.89
2016-09-30T02:51:07.930Z,956.85
2016-09-30T02:52:07.626Z,956.86
2016-09-30T02:53:08.258Z,956.83
2016-09-30T02:54:07.857Z,956.86
2016-09-30T02:55:07.544Z,956.87
2016-09-30T02:56:08.239Z,956.85
2016-09-30T02:57:07.839Z,956.83
2016-09-30T02:58:07.345Z,956.78
2016-09-30T02:59:07.846Z,956.83
2016-09-30T03:00:07.575Z,956.79
2016-09-30T03:01:08.196Z,956.76
2016-09-30T03:02:07.723Z,956.78
2016-09-30T03:03:08.278Z,956.76
2016-09-30T03:04:07.774Z,956.73
2016-09-30T03:05:07.279Z,956.74
2016-09-30T03:06:07.760Z,956.74
2016-09-30T03:07:07.303Z,956.73
2016-09-30T03:08:07.927Z,956.71
2016-09-30T03:09:07.482Z,956.70
2016-09-30T03:10:08.029Z,956.71
2016-09-30T03:11:07.601Z,956.68
2016-09-30T03:12:08.211Z,956.69
2016-09-30T03:13:07.702Z,956.69
2016-09-30T03:14:08.299Z,956.70
2016-09-30T03:15:07.910Z,956.65
2016-09-30T03:16:07.553Z,956.64
2016-09-30T03:17:08.176Z,956.63
2016-09-30T03:18:08.241Z,956.61
2016-09-30T03:19:07.735Z,956.63
2016-09-30T03:20:08.369Z,956.62
2016-09-30T03:21:07.863Z,956.63
2016-09-30T03:22:07.449Z,956.61
2016-09-30T03:23:08.051Z,956.59
2016-09-30T03:24:07.560Z,956.60
2016-09-30T03:25:08.139Z,956.57
2016-09-30T03:26:07.650Z,956.59
2016-09-30T03:27:08.242Z,956.60
2016-09-30T03:28:07.748Z,956.60
2016-09-30T03:29:08.307Z,956.59
2016-09-30T03:30:07.882Z,956.65
2016-09-30T03:31:07.453Z,956.60
2016-09-30T03:32:08.015Z,956.58
2016-09-30T03:33:07.590Z,956.59
2016-09-30T03:34:08.179Z,956.58
2016-09-30T03:35:07.707Z,956.60
2016-09-30T03:36:08.239Z,956.58
2016-09-30T03:37:07.850Z,956.60
2016-09-30T03:38:07.394Z,956.57
2016-09-30T03:39:07.958Z,956.57
2016-09-30T03:40:07.609Z,956.53
2016-09-30T03:41:08.151Z,956.58
2016-09-30T03:42:07.668Z,956.55
2016-09-30T03:43:08.096Z,956.59
2016-09-30T03:44:08.235Z,956.52
2016-09-30T03:45:07.776Z,956.54
2016-09-30T03:46:07.227Z,956.53
2016-09-30T03:47:07.715Z,956.53
2016-09-30T03:48:08.358Z,956.50
2016-09-30T03:49:07.830Z,956.52
2016-09-30T03:50:07.252Z,956.51
2016-09-30T03:51:07.766Z,956.49
2016-09-30T03:52:07.502Z,956.48
2016-09-30T03:53:08.057Z,956.53
2016-09-30T03:54:07.518Z,956.46
2016-09-30T03:55:08.102Z,956.48
2016-09-30T03:56:07.646Z,956.45
2016-09-30T03:57:08.163Z,956.47
2016-09-30T03:58:07.686Z,956.42
2016-09-30T03:59:08.299Z,956.44
2016-09-30T04:00:07.877Z,956.47
2016-09-30T04:01:07.358Z,956.48
2016-09-30T04:02:07.977Z,956.47
2016-09-30T04:03:07.612Z,956.44
2016-09-30T04:04:08.143Z,956.42
2016-09-30T04:05:08.055Z,956.42
2016-09-30T04:06:07.580Z,956.36
2016-09-30T04:07:08.152Z,956.38
2016-09-30T04:08:07.782Z,956.41
2016-09-30T04:09:07.310Z,956.39
2016-09-30T04:10:07.871Z,956.36
2016-09-30T04:11:07.442Z,956.43
2016-09-30T04:12:09.380Z,956.39
2016-09-30T04:13:08.020Z,956.40
2016-09-30T04:14:13.103Z,956.47
2016-09-30T04:15:08.038Z,956.45
2016-09-30T04:16:07.564Z,956.40
2016-09-30T04:17:08.337Z,956.42
2016-09-30T04:18:08.007Z,956.42
2016-09-30T04:19:08.061Z,956.45
2016-09-30T04:20:07.562Z,956.45
2016-09-30T04:21:08.152Z,956.47
2016-09-30T04:22:07.698Z,956.43
2016-09-30T04:23:08.297Z,956.43
2016-09-30T04:24:07.821Z,956.40
2016-09-30T04:25:10.062Z,956.39
2016-09-30T04:26:07.905Z,956.39
2016-09-30T04:27:07.427Z,956.41
2016-09-30T04:28:07.977Z,956.41
2016-09-30T04:29:07.592Z,956.38
2016-09-30T04:30:08.165Z,956.36
2016-09-30T04:31:07.750Z,956.34
2016-09-30T04:32:07.337Z,956.35
2016-09-30T04:33:07.872Z,956.38
2016-09-30T04:34:07.404Z,956.34
2016-09-30T04:35:07.863Z,956.32
2016-09-30T04:36:07.353Z,956.36
2016-09-30T04:37:07.923Z,956.38
2016-09-30T04:38:07.539Z,956.33
2016-09-30T04:39:08.111Z,956.33
2016-09-30T04:40:07.637Z,956.37
2016-09-30T04:41:08.170Z,956.36
2016-09-30T04:42:07.760Z,956.33
2016-09-30T04:43:07.244Z,956.32
2016-09-30T04:44:07.711Z,956.30
2016-09-30T04:45:08.304Z,956.32
2016-09-30T04:46:07.895Z,956.32
2016-09-30T04:47:07.464Z,956.33
2016-09-30T04:48:08.038Z,956.34
2016-09-30T04:49:07.601Z,956.32
2016-09-30T04:50:08.131Z,956.32
2016-09-30T04:51:07.704Z,956.29
2016-09-30T04:52:08.364Z,956.32
2016-09-30T04:53:07.866Z,956.32
2016-09-30T04:54:07.452Z,956.34
2016-09-30T04:55:08.043Z,956.37
2016-09-30T04:56:07.509Z,956.34
2016-09-30T04:57:08.071Z,956.34
2016-09-30T04:58:13.116Z,956.35
2016-09-30T04:59:07.661Z,956.38
2016-09-30T05:00:08.247Z,956.34
2016-09-30T05:01:07.822Z,956.37
2016-09-30T05:02:08.191Z,956.36
2016-09-30T05:03:07.755Z,956.40
2016-09-30T05:04:07.245Z,956.36
2016-09-30T05:05:07.672Z,956.38
2016-09-30T05:06:07.879Z,956.33
2016-09-30T05:07:07.463Z,956.39
2016-09-30T05:08:08.049Z,956.36
2016-09-30T05:09:07.646Z,956.35
2016-09-30T05:10:08.234Z,956.33
2016-09-30T05:11:07.796Z,956.36
2016-09-30T05:12:07.356Z,956.35
2016-09-30T05:13:07.887Z,956.35
2016-09-30T05:14:07.349Z,956.37
2016-09-30T05:15:07.817Z,956.33
2016-09-30T05:16:07.347Z,956.35
2016-09-30T05:17:08.002Z,956.36
2016-09-30T05:18:07.630Z,956.35
2016-09-30T05:19:08.241Z,956.32
2016-09-30T05:20:07.738Z,956.34
2016-09-30T05:21:08.296Z,956.32
2016-09-30T05:22:07.881Z,956.35
2016-09-30T05:23:07.420Z,956.41
2016-09-30T05:24:08.085Z,956.38
2016-09-30T05:25:07.609Z,956.36
2016-09-30T05:26:08.241Z,956.35
2016-09-30T05:27:07.727Z,956.34
2016-09-30T05:28:08.305Z,956.36
2016-09-30T05:29:07.942Z,956.39
2016-09-30T05:30:07.494Z,956.35
2016-09-30T05:31:08.045Z,956.37
2016-09-30T05:32:07.612Z,956.36
2016-09-30T05:33:08.122Z,956.37
2016-09-30T05:34:07.590Z,956.38
2016-09-30T05:35:08.143Z,956.41
2016-09-30T05:36:07.713Z,956.40
2016-09-30T05:37:08.191Z,956.43
2016-09-30T05:38:07.682Z,956.41
2016-09-30T05:39:08.303Z,956.42
2016-09-30T05:40:07.818Z,956.39
2016-09-30T05:41:07.313Z,956.38
2016-09-30T05:42:07.801Z,956.41
2016-09-30T05:43:07.344Z,956.42
2016-09-30T05:44:07.820Z,956.44
2016-09-30T05:45:07.361Z,956.44
2016-09-30T05:46:07.852Z,956.47
2016-09-30T05:47:07.312Z,956.46
2016-09-30T05:48:07.934Z,956.47
2016-09-30T05:49:07.468Z,956.46
2016-09-30T05:50:07.962Z,956.41
2016-09-30T05:51:07.632Z,956.45
2016-09-30T05:52:08.223Z,956.44
2016-09-30T05:53:07.752Z,956.46
2016-09-30T05:54:08.220Z,956.45
2016-09-30T05:55:07.665Z,956.48
2016-09-30T05:56:08.180Z,956.46
2016-09-30T05:57:07.744Z,956.43
2016-09-30T05:58:08.322Z,956.41
2016-09-30T05:59:07.989Z,956.45
2016-09-30T06:00:07.601Z,956.43
2016-09-30T06:01:08.100Z,956.43
2016-09-30T06:02:07.563Z,956.49
2016-09-30T06:03:08.161Z,956.48
2016-09-30T06:04:07.654Z,956.46
2016-09-30T06:05:08.308Z,956.49
2016-09-30T06:06:07.777Z,956.52
2016-09-30T06:07:07.340Z,956.50
2016-09-30T06:08:07.810Z,956.52
2016-09-30T06:09:07.288Z,956.48
2016-09-30T06:10:07.881Z,956.52
2016-09-30T06:11:07.412Z,956.50
2016-09-30T06:12:07.931Z,956.52
2016-09-30T06:13:07.461Z,956.48
2016-09-30T06:14:07.994Z,956.50
2016-09-30T06:15:07.562Z,956.52
2016-09-30T06:16:08.145Z,956.52
2016-09-30T06:17:07.831Z,956.51
2016-09-30T06:18:07.361Z,956.54
2016-09-30T06:19:07.948Z,956.51
2016-09-30T06:20:07.409Z,956.51
2016-09-30T06:21:07.912Z,956.47
2016-09-30T06:22:07.401Z,956.50
2016-09-30T06:23:07.919Z,956.53
2016-09-30T06:24:07.423Z,956.50
2016-09-30T06:25:07.894Z,956.52
2016-09-30T06:26:07.361Z,956.50
2016-09-30T06:27:07.875Z,956.50
2016-09-30T06:28:07.409Z,956.50
2016-09-30T06:29:08.016Z,956.49
2016-09-30T06:30:07.542Z,956.54
2016-09-30T06:31:08.108Z,956.52
2016-09-30T06:32:07.638Z,956.55
2016-09-30T06:33:08.329Z,956.53
2016-09-30T06:34:07.849Z,956.52
2016-09-30T06:35:07.349Z,956.56
2016-09-30T06:36:07.930Z,956.55
2016-09-30T06:37:07.469Z,956.55
2016-09-30T06:38:08.043Z,956.52
2016-09-30T06:39:07.524Z,956.55
2016-09-30T06:40:08.070Z,956.55
2016-09-30T06:41:07.516Z,956.56
2016-09-30T06:42:08.020Z,956.56
2016-09-30T06:43:07.565Z,956.52
2016-09-30T06:44:08.015Z,956.55
2016-09-30T06:45:07.519Z,956.56
2016-09-30T06:46:08.189Z,956.53
2016-09-30T06:47:07.817Z,956.48
2016-09-30T06:48:07.294Z,956.47
2016-09-30T06:49:07.909Z,956.46
2016-09-30T06:50:07.455Z,956.53
2016-09-30T06:51:08.035Z,956.46
2016-09-30T06:52:07.705Z,956.47
2016-09-30T06:53:08.292Z,956.49
2016-09-30T06:54:07.846Z,956.46
2016-09-30T06:55:07.334Z,956.47
2016-09-30T06:56:07.866Z,956.51
2016-09-30T06:57:07.300Z,956.48
2016-09-30T06:58:07.802Z,956.50
2016-09-30T06:59:07.296Z,956.51
2016-09-30T07:00:07.865Z,956.51
2016-09-30T07:01:07.466Z,956.49
2016-09-30T07:02:07.966Z,956.51
2016-09-30T07:03:07.483Z,956.49
2016-09-30T07:04:08.045Z,956.49
2016-09-30T07:05:07.686Z,956.47
2016-09-30T07:06:08.305Z,956.47
2016-09-30T07:07:07.777Z,956.45
2016-09-30T07:08:07.271Z,956.43
2016-09-30T07:09:07.899Z,956.44
2016-09-30T07:10:07.428Z,956.49
2016-09-30T07:11:07.881Z,956.48
2016-09-30T07:12:08.191Z,956.46
2016-09-30T07:13:07.714Z,956.47
2016-09-30T07:14:08.251Z,956.50
2016-09-30T07:15:07.789Z,956.48
2016-09-30T07:16:07.307Z,956.50
2016-09-30T07:17:07.996Z,956.50
2016-09-30T07:18:07.614Z,956.50
2016-09-30T07:19:08.248Z,956.50
2016-09-30T07:20:07.837Z,956.54
2016-09-30T07:21:07.305Z,956.56
2016-09-30T07:22:07.863Z,956.53
2016-09-30T07:23:07.497Z,956.53
2016-09-30T07:24:08.106Z,956.57
2016-09-30T07:25:07.730Z,956.61
2016-09-30T07:26:08.323Z,956.61
2016-09-30T07:27:07.919Z,956.62
2016-09-30T07:28:07.528Z,956.60
2016-09-30T07:29:08.101Z,956.62
2016-09-30T07:30:07.615Z,956.58
2016-09-30T07:31:08.203Z,956.60
2016-09-30T07:32:07.835Z,956.64
2016-09-30T07:33:07.373Z,956.62
2016-09-30T07:34:07.980Z,956.66
2016-09-30T07:35:07.473Z,956.62
2016-09-30T07:36:07.920Z,956.63
2016-09-30T07:37:07.471Z,956.64
2016-09-30T07:38:08.616Z,956.65
2016-09-30T07:39:08.149Z,956.63
2016-09-30T07:40:07.726Z,956.65
2016-09-30T07:41:08.276Z,956.66
2016-09-30T07:42:07.876Z,956.71
2016-09-30T07:43:07.431Z,956.73
2016-09-30T07:44:07.976Z,956.70
2016-09-30T07:45:07.547Z,956.67
2016-09-30T07:46:08.157Z,956.70
2016-09-30T07:47:07.787Z,956.72
2016-09-30T07:48:07.258Z,956.71
2016-09-30T07:49:07.752Z,956.69
2016-09-30T07:50:07.265Z,956.72
2016-09-30T07:51:07.765Z,956.76
2016-09-30T07:52:07.361Z,956.76
2016-09-30T07:53:07.926Z,956.79
2016-09-30T07:54:07.419Z,956.75
2016-09-30T07:55:07.964Z,956.82
2016-09-30T07:56:07.424Z,956.81
2016-09-30T07:57:07.963Z,956.75
2016-09-30T07:58:07.466Z,956.82
2016-09-30T07:59:07.952Z,956.83
2016-09-30T08:00:07.483Z,956.83
2016-09-30T08:01:08.064Z,956.79
2016-09-30T08:02:07.582Z,956.80
2016-09-30T08:03:08.117Z,956.80
2016-09-30T08:04:07.707Z,956.81
2016-09-30T08:05:08.278Z,956.81
2016-09-30T08:06:07.830Z,956.80
2016-09-30T08:07:07.277Z,956.80
2016-09-30T08:08:07.777Z,956.79
2016-09-30T08:09:07.260Z,956.77
2016-09-30T08:10:07.813Z,956.78
2016-09-30T08:11:07.327Z,956.77
2016-09-30T08:12:07.926Z,956.76
2016-09-30T08:13:07.391Z,956.76
2016-09-30T08:14:07.973Z,956.79
2016-09-30T08:15:07.508Z,956.75
2016-09-30T08:16:08.064Z,956.75
2016-09-30T08:17:07.828Z,956.75
2016-09-30T08:18:07.353Z,956.72
2016-09-30T08:19:07.926Z,956.72
2016-09-30T08:20:07.527Z,956.68
2016-09-30T08:21:08.091Z,956.69
2016-09-30T08:22:07.579Z,956.69
2016-09-30T08:23:08.087Z,956.66
2016-09-30T08:24:07.650Z,956.67
2016-09-30T08:25:08.197Z,956.68
2016-09-30T08:26:07.708Z,956.65
2016-09-30T08:27:08.228Z,956.68
2016-09-30T08:28:07.717Z,956.61
2016-09-30T08:29:08.267Z,956.63
2016-09-30T08:30:07.767Z,956.68
2016-09-30T08:31:07.256Z,956.61
2016-09-30T08:32:07.908Z,956.64
2016-09-30T08:33:07.489Z,956.63
2016-09-30T08:34:07.985Z,956.61
2016-09-30T08:35:07.511Z,956.61
2016-09-30T08:36:08.006Z,956.63
2016-09-30T08:37:07.617Z,956.58
2016-09-30T08:38:08.155Z,956.61
2016-09-30T08:39:07.619Z,956.62
2016-09-30T08:40:08.130Z,956.63
2016-09-30T08:41:07.598Z,956.62
2016-09-30T08:42:08.084Z,956.62
2016-09-30T08:43:07.584Z,956.59
2016-09-30T08:44:08.156Z,956.60
2016-09-30T08:45:07.685Z,956.53
2016-09-30T08:46:08.167Z,956.56
2016-09-30T08:47:07.707Z,956.53
2016-09-30T08:48:08.294Z,956.57
2016-09-30T08:49:07.826Z,956.56
2016-09-30T08:50:07.243Z,956.54
2016-09-30T08:51:07.856Z,956.50
2016-09-30T08:52:07.398Z,956.52
2016-09-30T08:53:07.865Z,956.56
2016-09-30T08:54:07.460Z,956.57
2016-09-30T08:55:08.045Z,956.50
2016-09-30T08:56:07.697Z,956.54
2016-09-30T08:57:08.339Z,956.56
2016-09-30T08:58:07.867Z,956.51
2016-09-30T08:59:07.370Z,956.49
2016-09-30T09:00:07.947Z,956.51
2016-09-30T09:01:07.415Z,956.53
2016-09-30T09:02:07.948Z,956.55
2016-09-30T09:03:07.516Z,956.49
2016-09-30T09:04:08.130Z,956.50
2016-09-30T09:05:07.675Z,956.44
2016-09-30T09:06:08.226Z,956.47
2016-09-30T09:07:07.748Z,956.47
2016-09-30T09:08:07.305Z,956.51
2016-09-30T09:09:07.786Z,956.50
2016-09-30T09:10:07.348Z,956.41
2016-09-30T09:11:07.876Z,956.47
2016-09-30T09:12:07.435Z,956.49
2016-09-30T09:13:07.955Z,956.46
2016-09-30T09:14:07.498Z,956.46
2016-09-30T09:15:08.128Z,956.42
2016-09-30T09:16:07.698Z,956.43
2016-09-30T09:17:08.323Z,956.45
2016-09-30T09:18:07.853Z,956.40
2016-09-30T09:19:07.423Z,956.41
2016-09-30T09:20:07.943Z,956.40
2016-09-30T09:21:07.488Z,956.33
2016-09-30T09:22:08.087Z,956.42
2016-09-30T09:23:07.620Z,956.37
2016-09-30T09:24:08.178Z,956.39
2016-09-30T09:25:07.788Z,956.33
2016-09-30T09:26:07.284Z,956.34
2016-09-30T09:27:07.830Z,956.37
2016-09-30T09:28:07.327Z,956.33
2016-09-30T09:29:07.779Z,956.33
2016-09-30T09:30:07.371Z,956.30
2016-09-30T09:31:07.929Z,956.31
2016-09-30T09:32:07.485Z,956.28
2016-09-30T09:33:07.982Z,956.31
2016-09-30T09:34:07.509Z,956.34
2016-09-30T09:35:08.067Z,956.28
2016-09-30T09:36:07.587Z,956.31
2016-09-30T09:37:08.007Z,956.31
2016-09-30T09:38:08.197Z,956.25
2016-09-30T09:39:07.746Z,956.32
2016-09-30T09:40:08.308Z,956.19
2016-09-30T09:41:07.866Z,956.23
2016-09-30T09:42:07.335Z,956.22
2016-09-30T09:43:07.916Z,956.22
2016-09-30T09:44:07.468Z,956.20
2016-09-30T09:45:07.988Z,956.18
2016-09-30T09:46:07.449Z,956.20
2016-09-30T09:47:08.238Z,956.21
2016-09-30T09:48:07.748Z,956.22
2016-09-30T09:49:08.405Z,956.25
2016-09-30T09:50:07.920Z,956.17
2016-09-30T09:51:07.434Z,956.18
2016-09-30T09:52:14.675Z,956.17
2016-09-30T09:53:08.291Z,956.15
2016-09-30T09:54:07.854Z,956.18
2016-09-30T09:55:07.417Z,956.12
2016-09-30T09:56:07.976Z,956.14
2016-09-30T09:57:07.486Z,956.15
2016-09-30T09:58:08.070Z,956.13
2016-09-30T09:59:07.596Z,956.18
2016-09-30T10:00:08.239Z,956.16
2016-09-30T10:01:07.731Z,956.16
2016-09-30T10:02:08.363Z,956.15
2016-09-30T10:03:07.926Z,956.11
2016-09-30T10:04:07.486Z,956.08
2016-09-30T10:05:07.956Z,956.14
2016-09-30T10:06:07.497Z,956.17
2016-09-30T10:07:08.064Z,956.10
2016-09-30T10:08:07.667Z,956.08
2016-09-30T10:09:08.154Z,956.14
2016-09-30T10:10:07.656Z,956.07
2016-09-30T10:11:08.172Z,956.09
2016-09-30T10:12:07.710Z,956.05
2016-09-30T10:13:08.317Z,956.09
2016-09-30T10:14:07.881Z,956.09
2016-09-30T10:15:07.455Z,956.06
2016-09-30T10:16:08.035Z,956.05
2016-09-30T10:17:07.636Z,956.08
2016-09-30T10:18:08.277Z,956.08
2016-09-30T10:19:07.854Z,956.08
2016-09-30T10:20:07.407Z,956.04
2016-09-30T10:21:07.899Z,956.01
2016-09-30T10:22:07.377Z,956.02
2016-09-30T10:23:08.028Z,956.01
2016-09-30T10:24:07.654Z,955.99
2016-09-30T10:25:08.245Z,956.02
2016-09-30T10:26:07.755Z,955.98
2016-09-30T10:27:08.312Z,956.00
2016-09-30T10:28:07.825Z,956.01
2016-09-30T10:29:07.251Z,956.00
2016-09-30T10:30:07.737Z,955.92
2016-09-30T10:31:08.313Z,955.91
2016-09-30T10:32:07.917Z,955.93
2016-09-30T10:33:07.491Z,955.94
2016-09-30T10:34:07.993Z,955.95
2016-09-30T10:35:07.544Z,955.90
2016-09-30T10:36:08.143Z,955.98
2016-09-30T10:37:07.658Z,955.88
2016-09-30T10:38:08.118Z,955.89
2016-09-30T10:39:07.678Z,955.83
2016-09-30T10:40:08.262Z,955.85
2016-09-30T10:41:07.764Z,955.89
2016-09-30T10:42:07.410Z,955.90
2016-09-30T10:43:08.016Z,955.89
2016-09-30T10:44:07.613Z,955.85
2016-09-30T10:45:08.147Z,955.85
2016-09-30T10:46:07.672Z,955.84
2016-09-30T10:47:08.241Z,955.85
2016-09-30T10:48:07.829Z,955.86
2016-09-30T10:49:07.450Z,955.85
2016-09-30T10:50:08.047Z,955.84
2016-09-30T10:51:07.518Z,955.86
2016-09-30T10:52:08.108Z,955.89
2016-09-30T10:53:07.682Z,955.80
2016-09-30T10:54:08.339Z,955.79
2016-09-30T10:55:07.863Z,955.81
2016-09-30T10:56:07.365Z,955.82
2016-09-30T10:57:07.842Z,955.81
2016-09-30T10:58:07.273Z,955.83
2016-09-30T10:59:07.763Z,955.85
2016-09-30T11:00:07.332Z,955.81
2016-09-30T11:01:07.900Z,955.79
2016-09-30T11:02:07.373Z,955.81
2016-09-30T11:03:07.873Z,955.81
2016-09-30T11:04:07.386Z,955.79
2016-09-30T11:05:08.302Z,955.76
2016-09-30T11:06:07.974Z,955.80
2016-09-30T11:07:07.501Z,955.77
2016-09-30T11:08:08.360Z,955.77
2016-09-30T11:09:08.027Z,955.76
2016-09-30T11:10:07.657Z,955.79
2016-09-30T11:11:08.289Z,955.75
2016-09-30T11:12:07.993Z,955.77
2016-09-30T11:13:07.727Z,955.78
2016-09-30T11:14:08.391Z,955.74
2016-09-30T11:15:07.997Z,955.74
2016-09-30T11:16:07.840Z,955.73
2016-09-30T11:17:07.549Z,955.73
2016-09-30T11:18:07.607Z,955.70
2016-09-30T11:19:08.382Z,955.70
2016-09-30T11:20:07.961Z,955.64
2016-09-30T11:21:07.811Z,955.62
2016-09-30T11:22:07.401Z,955.61
2016-09-30T11:23:08.101Z,955.67
2016-09-30T11:24:07.781Z,955.65
2016-09-30T11:25:07.450Z,955.58
2016-09-30T11:26:08.142Z,955.54
2016-09-30T11:27:07.759Z,955.56
2016-09-30T11:28:07.451Z,955.57
2016-09-30T11:29:08.128Z,955.51
2016-09-30T11:30:07.885Z,955.46
2016-09-30T11:31:07.633Z,955.46
2016-09-30T11:32:08.550Z,955.49
2016-09-30T11:33:08.293Z,955.48
2016-09-30T11:34:07.880Z,955.44
2016-09-30T11:35:07.541Z,955.41
2016-09-30T11:36:08.302Z,955.42
2016-09-30T11:37:08.160Z,955.41
2016-09-30T11:38:07.893Z,955.40
2016-09-30T11:39:07.565Z,955.36
2016-09-30T11:40:08.264Z,955.38
2016-09-30T11:41:08.239Z,955.35
2016-09-30T11:42:07.937Z,955.30
2016-09-30T11:43:07.559Z,955.38
2016-09-30T11:44:08.337Z,955.35
2016-09-30T11:45:08.035Z,955.33
2016-09-30T11:46:07.614Z,955.38
2016-09-30T11:47:08.379Z,955.36
2016-09-30T11:48:08.105Z,955.34
2016-09-30T11:49:07.702Z,955.33
2016-09-30T11:50:08.507Z,955.26
2016-09-30T11:51:08.171Z,955.28
2016-09-30T11:52:07.965Z,955.20
2016-09-30T11:53:07.558Z,955.25
2016-09-30T11:54:08.208Z,955.24
2016-09-30T11:55:07.887Z,955.18
2016-09-30T11:56:07.508Z,955.19
2016-09-30T11:57:08.264Z,955.18
2016-09-30T11:58:07.837Z,955.19
2016-09-30T11:59:07.457Z,955.17
2016-09-30T12:00:08.119Z,955.17
2016-09-30T12:01:07.825Z,955.15
2016-09-30T12:02:07.425Z,955.20
2016-09-30T12:03:08.036Z,955.12
2016-09-30T12:04:07.705Z,955.17
2016-09-30T12:05:08.645Z,955.15
2016-09-30T12:06:08.298Z,955.09
2016-09-30T12:07:08.050Z,955.11
2016-09-30T12:08:23.729Z,955.10
2016-09-30T12:09:07.517Z,955.06
2016-09-30T12:10:08.126Z,955.05
2016-09-30T12:11:07.752Z,955.06
2016-09-30T12:12:07.342Z,955.07
2016-09-30T12:13:08.106Z,955.06
2016-09-30T12:14:07.933Z,955.04
2016-09-30T12:15:07.638Z,955.03
2016-09-30T12:16:08.069Z,955.03
2016-09-30T12:17:08.555Z,954.99
2016-09-30T12:18:08.284Z,954.97
2016-09-30T12:19:08.007Z,955.05
2016-09-30T12:20:07.785Z,954.99
2016-09-30T12:21:07.476Z,954.99
2016-09-30T12:22:08.255Z,954.98
2016-09-30T12:23:08.104Z,955.00
2016-09-30T12:24:07.663Z,955.06
2016-09-30T12:25:08.422Z,955.01
2016-09-30T12:26:08.145Z,954.98
2016-09-30T12:27:07.711Z,954.95
2016-09-30T12:28:08.505Z,954.98